Have a Safe July 4th! 

Flight Track Log - Related Links

Times and Time Zones

All times are in EDT time to prevent confusion due to time zone crossing. See the N8430N flight status page for this flight to view local times or setup timezone preferences in your user account.

Time Position Orientation Groundspeed Altitude Reporting Facility
EDT Latitude Longitude Course Direction KTS MPH feet Rate Location/Type
Sat 04:02:13 PM 40.6250 -89.6833 37° Northeast 129 148 3,900  Level Chicago Center
Sat 04:03:15 PM 40.6586 -89.6636 24° Northeast 132 152 4,800 871 Climbing Chicago Center
Sat 04:04:17 PM 40.6906 -89.6447 24° Northeast 128 147 5,700 878 Climbing Chicago Center
Sat 04:05:18 PM 40.7192 -89.6150 38° Northeast 129 148 6,600 683 Climbing Chicago Center
Sat 04:06:00 PM 40.8808 -89.4526 37° Northeast  Level FlightAware Approximate
Sat 04:06:20 PM 40.7481 -89.5842 39° Northeast 132 152 7,100  Level Chicago Center
Sat 04:07:00 PM 40.9195 -89.4139 37° Northeast  Level FlightAware Approximate
Sat 04:07:21 PM 40.7881 -89.5306 45° Northeast 167 192 7,100  Level Chicago Center
Sat 04:08:23 PM 40.8225 -89.4858 44° Northeast 172 198 7,100 -48 Level Chicago Center
Sat 04:09:25 PM 40.8592 -89.4461 39° Northeast 172 198 7,000 -49 Descending Chicago Center
Sat 04:10:26 PM 40.8956 -89.4064 40° Northeast 170 196 7,000  Level Chicago Center
Sat 04:11:28 PM 40.9325 -89.3681 38° Northeast 170 196 7,000  Level Chicago Center
Sat 04:12:30 PM 40.9686 -89.3289 39° Northeast 168 193 7,000  Level Chicago Center
Sat 04:13:32 PM 41.0053 -89.2886 40° Northeast 170 196 7,000  Level Chicago Center
Sat 04:14:33 PM 41.0483 -89.2408 40° Northeast 169 194 7,000  Level Chicago Center
Sat 04:15:35 PM 41.0872 -89.2022 37° Northeast 172 198 7,000  Level Chicago Center
Sat 04:16:37 PM 41.1264 -89.1583 40° Northeast 172 198 7,000  Level Chicago Center
Sat 04:17:38 PM 41.1619 -89.1194 39° Northeast 168 193 7,000  Level Chicago Center
Sat 04:18:40 PM 41.1981 -89.0786 40° Northeast 169 194 7,000  Level Chicago Center
Sat 04:19:42 PM 41.2342 -89.0383 40° Northeast 170 196 7,000  Level Chicago Center
Sat 04:20:43 PM 41.2697 -88.9994 39° Northeast 168 193 7,000  Level Chicago Center
Sat 04:21:45 PM 41.3064 -88.9594 39° Northeast 170 196 7,000  Level Chicago Center
Sat 04:22:47 PM 41.3422 -88.9192 40° Northeast 170 196 7,000  Level Chicago Center
Sat 04:23:49 PM 41.3864 -88.8694 40° Northeast 173 199 7,000 -390 Level Chicago Center
Sat 04:24:50 PM 41.4244 -88.8244 42° Northeast 183 211 6,200 -439 Descending Chicago Center
Sat 04:25:52 PM 41.4667 -88.7794 39° Northeast 193 222 6,100 -48 Descending Chicago Center
Sat 04:26:54 PM 41.5056 -88.7417 36° Northeast 180 207 6,100  Level Chicago Center
Sat 04:27:55 PM 41.5414 -88.6992 42° Northeast 175 201 6,100  Level Chicago Center
Sat 04:28:57 PM 41.5778 -88.6583 40° Northeast 173 199 6,100  Level Chicago Center
Sat 04:29:59 PM 41.6206 -88.6078 41° Northeast 173 199 6,100 -145 Level Chicago Center
Sat 04:31:01 PM 41.6661 -88.5847 21° North 176 203 5,800 -390 Descending Chicago Center
Sat 04:32:02 PM 41.7156 -88.5644 17° North 185 213 5,300 -537 Descending Chicago Center
Sat 04:33:04 PM 41.7633 -88.5397 21° North 185 213 4,700 -629 Descending Chicago Center
Sat 04:34:06 PM 41.8125 -88.5158 20° North 186 214 4,000 -339 Descending Chicago Center
Sat 04:35:08 PM 41.8586 -88.4950 19° North 183 211 4,000  Level Chicago Center
Sat 04:36:10 PM 41.9019 -88.4722 21° North 175 201 4,000  Level Chicago Center
Sat 04:37:11 PM 41.9522 -88.4494 19° North 167 192 4,000 -244 Level Chicago Center
Sat 04:38:13 PM 41.9944 -88.4278 21° North 164 189 3,500 -242 Descending Chicago Center
Sat 04:39:15 PM 42.0361 -88.4067 21° North 164 189 3,500  Level Chicago Center
Sat 04:41:00 PM 42.0632 -88.3104 69° East  Level FlightAware Approximate
Sat 04:48:00 PM 42.2068 -88.3230 90° East  Level Estimated
Sat 04:49:00 PM 42.2068 -88.3230 270° West  Level Estimated

Login

Don't have an account? Register now (free) for customized features, flight alerts, and more!